Time;durP1;ratioP1;P1;durP2;ratioP2;P2;SDS_P1;SDS_P2;PMS_P1;PMS_P2;Temp;Humidity;BMP_temperature;BMP_pressure;BME280_temperature;BME280_humidity;BME280_pressure;Samples;Min_cycle;Max_cycle;Signal;HPM_P1;HPM_P2
2023/02/08 00:00:48;;;;;;;29.10;19.30;;;;;;;-8.35;100.00;99045.75;5068551;28;20655;-64
2023/02/08 00:03:16;;;;;;;21.67;17.50;;;;;;;-8.35;100.00;99049.16;5061798;28;21061;-64
2023/02/08 00:05:43;;;;;;;21.33;17.13;;;;;;;-8.30;100.00;99046.56;5025322;28;20494;-64
2023/02/08 00:08:12;;;;;;;20.03;16.00;;;;;;;-8.29;100.00;99046.53;5057298;28;20448;-63
2023/02/08 00:10:40;;;;;;;20.17;15.33;;;;;;;-8.30;100.00;99046.56;5061271;28;20779;-65
2023/02/08 00:13:08;;;;;;;23.10;17.10;;;;;;;-8.36;100.00;99044.91;5050234;28;20688;-64
2023/02/08 00:15:41;;;;;;;19.50;16.67;;;;;;;-8.37;100.00;99042.38;5066798;28;20455;-62
2023/02/08 00:18:09;;;;;;;18.60;16.40;;;;;;;-8.39;100.00;99042.38;5054383;28;20539;-65
2023/02/08 00:20:37;;;;;;;19.20;13.73;;;;;;;-8.39;100.00;99044.94;5056099;28;20619;-65
2023/02/08 00:23:06;;;;;;;16.97;15.17;;;;;;;-8.42;100.00;99047.56;5010975;28;20784;-64
2023/02/08 00:25:35;;;;;;;19.13;14.90;;;;;;;-8.37;100.00;99042.38;5065199;28;20477;-64
2023/02/08 00:28:03;;;;;;;18.37;15.30;;;;;;;-8.31;100.00;99037.13;5049228;28;20547;-65
2023/02/08 00:30:31;;;;;;;17.70;14.70;;;;;;;-8.34;100.00;99037.19;5070469;28;20536;-64
2023/02/08 00:33:00;;;;;;;18.40;14.80;;;;;;;-8.38;100.00;99045.81;5060917;28;20479;-63
2023/02/08 00:35:28;;;;;;;18.43;14.87;;;;;;;-8.37;100.00;99042.38;5064192;28;20629;-63
2023/02/08 00:37:55;;;;;;;18.57;14.57;;;;;;;-8.38;100.00;99048.38;5007603;28;20520;-63
2023/02/08 00:40:23;;;;;;;16.97;15.03;;;;;;;-8.43;100.00;99044.16;5053281;28;20457;-65
2023/02/08 00:42:52;;;;;;;16.27;14.23;;;;;;;-8.42;100.00;99044.97;5052192;28;20452;-64
2023/02/08 00:45:20;;;;;;;15.93;14.27;;;;;;;-8.44;100.00;99045.03;5063134;28;20651;-64
2023/02/08 00:47:47;;;;;;;17.70;14.10;;;;;;;-8.38;100.00;99035.53;5055799;28;20736;-62
2023/02/08 00:50:15;;;;;;;21.97;15.33;;;;;;;-8.38;100.00;99038.94;5058513;28;21065;-64
2023/02/08 00:52:42;;;;;;;19.77;14.27;;;;;;;-8.38;100.00;99040.66;5060883;28;20452;-65
2023/02/08 00:55:10;;;;;;;19.17;14.37;;;;;;;-8.41;100.00;99040.72;5017603;28;20490;-64
2023/02/08 00:57:37;;;;;;;13.40;11.97;;;;;;;-8.41;100.00;99040.72;5056721;28;20456;-63
2023/02/08 01:00:08;;;;;;;17.27;12.90;;;;;;;-8.45;100.00;99040.75;5043560;28;20547;-63
2023/02/08 01:02:37;;;;;;;15.97;12.67;;;;;;;-8.44;100.00;99042.44;5071084;28;20554;-65
2023/02/08 01:05:05;;;;;;;16.43;12.73;;;;;;;-8.52;100.00;99041.72;5059094;28;20455;-66
2023/02/08 01:07:33;;;;;;;17.00;13.23;;;;;;;-8.61;100.00;99032.41;5056108;28;20448;-66
2023/02/08 01:10:01;;;;;;;19.30;12.90;;;;;;;-8.62;100.00;99037.53;5022255;28;20843;-63
2023/02/08 01:12:28;;;;;;;15.73;13.30;;;;;;;-8.61;100.00;99042.69;5061256;28;20474;-62
2023/02/08 01:14:56;;;;;;;16.60;13.43;;;;;;;-8.66;100.00;99043.59;5050940;28;20483;-63
2023/02/08 01:17:25;;;;;;;18.07;13.40;;;;;;;-8.63;100.00;99056.41;5063676;28;20814;-65
2023/02/08 01:19:53;;;;;;;16.53;12.70;;;;;;;-8.68;100.00;99042.75;5039735;28;20532;-64
2023/02/08 01:22:20;;;;;;;15.87;14.17;;;;;;;-8.75;100.00;99045.41;5059600;28;20577;-63
2023/02/08 01:24:48;;;;;;;18.10;12.60;;;;;;;-8.83;100.00;99046.34;5018208;28;20452;-64
2023/02/08 01:27:16;;;;;;;21.27;14.17;;;;;;;-8.93;100.00;99043.03;5053493;28;20930;-63
2023/02/08 01:29:44;;;;;;;17.30;13.70;;;;;;;-8.95;100.00;99042.19;5058084;28;20490;-63
2023/02/08 01:32:11;;;;;;;15.77;13.30;;;;;;;-8.96;100.00;99040.50;5054747;28;20756;-63
2023/02/08 01:34:40;;;;;;;13.33;11.97;;;;;;;-8.94;100.00;99041.31;5030761;28;21131;-64
2023/02/08 01:37:10;;;;;;;15.10;12.77;;;;;;;-8.93;100.00;99043.03;5056710;28;20832;-63
2023/02/08 01:39:38;;;;;;;16.87;13.97;;;;;;;-9.00;100.00;99037.13;5056842;28;20483;-63
2023/02/08 01:42:05;;;;;;;16.27;12.87;;;;;;;-8.97;100.00;99042.22;5017703;28;20484;-63
2023/02/08 01:45:16;;;;;;;15.77;13.03;;;;;;;-9.01;100.00;99040.56;5049361;28;20472;-63
2023/02/08 01:47:45;;;;;;;14.43;12.23;;;;;;;-9.04;100.00;99038.03;5034213;28;20472;-64
2023/02/08 01:50:15;;;;;;;15.93;14.27;;;;;;;-8.93;100.00;99036.19;5062907;28;20463;-64
2023/02/08 01:52:43;;;;;;;16.87;13.90;;;;;;;-8.93;100.00;99037.88;5054368;28;20864;-64
2023/02/08 01:55:15;;;;;;;13.50;12.10;;;;;;;-8.94;100.00;99029.34;5058574;28;20488;-63
2023/02/08 01:57:43;;;;;;;15.73;13.20;;;;;;;-8.98;100.00;99035.38;5017565;28;20574;-63
2023/02/08 02:00:15;;;;;;;16.47;13.57;;;;;;;-9.05;100.00;99026.06;5062078;28;20452;-63
2023/02/08 02:02:44;;;;;;;20.60;12.40;;;;;;;-9.10;100.00;99026.09;5042030;28;20452;-65
2023/02/08 02:05:13;;;;;;;16.57;13.53;;;;;;;-9.21;100.00;99015.91;5059219;28;20456;-65
2023/02/08 02:07:41;;;;;;;15.87;13.87;;;;;;;-9.27;100.00;99026.25;5052832;28;20453;-70
2023/02/08 02:10:10;;;;;;;16.73;14.27;;;;;;;-9.25;100.00;99029.66;5057813;28;20995;-67
2023/02/08 02:12:39;;;;;;;15.37;12.67;;;;;;;-9.28;100.00;99021.97;5019203;28;20500;-68
2023/02/08 02:15:08;;;;;;;17.33;13.33;;;;;;;-9.22;100.00;99032.19;5058623;28;20831;-66
2023/02/08 02:17:36;;;;;;;15.97;13.03;;;;;;;-9.30;100.00;99027.13;5048185;28;20456;-65
2023/02/08 02:20:09;;;;;;;14.77;13.30;;;;;;;-9.33;100.00;99024.59;5045356;28;20469;-65
2023/02/08 02:23:06;;;;;;;20.43;13.67;;;;;;;-9.30;100.00;99023.72;5053218;28;20810;-65
2023/02/08 02:25:58;;;;;;;15.43;13.60;;;;;;;-9.27;100.00;99020.28;5062184;28;20456;-64
2023/02/08 02:28:55;;;;;;;14.07;12.43;;;;;;;-9.32;100.00;99022.88;5012219;28;20467;-65
2023/02/08 02:31:45;;;;;;;14.50;12.93;;;;;;;-9.36;100.00;99011.78;5039532;28;20477;-65
2023/02/08 02:34:15;;;;;;;19.23;15.07;;;;;;;-9.36;100.00;99031.47;5064360;28;20847;-66
2023/02/08 02:36:48;;;;;;;15.77;13.33;;;;;;;-9.35;100.00;99021.19;5058937;28;20717;-65
2023/02/08 02:39:20;;;;;;;16.87;13.23;;;;;;;-9.42;100.00;99018.69;5061021;28;20471;-65
2023/02/08 02:44:48;;;;;;;16.83;14.17;;;;;;;-9.40;100.00;99014.41;5039319;28;20501;-65
2023/02/08 02:47:22;;;;;;;16.40;13.80;;;;;;;-9.51;100.00;99017.91;5063887;28;20481;-65
2023/02/08 02:49:52;;;;;;;17.37;14.00;;;;;;;-9.43;100.00;99027.28;5070269;28;20837;-67
2023/02/08 02:52:26;;;;;;;15.67;13.43;;;;;;;-9.31;100.00;99022.84;5056223;28;20488;-65
2023/02/08 02:54:57;;;;;;;16.03;13.53;;;;;;;-9.28;100.00;99021.13;5066572;28;20516;-67
2023/02/08 02:57:29;;;;;;;16.50;13.93;;;;;;;-9.31;100.00;99020.28;5066487;28;20445;-63
2023/02/08 02:59:57;;;;;;;17.20;13.53;;;;;;;-9.35;100.00;99028.88;5021209;28;20862;-66
2023/02/08 03:02:27;;;;;;;16.30;13.47;;;;;;;-9.33;100.00;99016.03;5060903;28;20833;-65
2023/02/08 03:04:55;;;;;;;15.77;13.07;;;;;;;-9.40;100.00;99019.53;5073334;28;20439;-65
2023/02/08 03:07:41;;;;;;;19.70;13.80;;;;;;;-9.45;100.00;99017.00;5060088;28;20452;-65
2023/02/08 03:10:18;;;;;;;15.33;12.73;;;;;;;-9.51;100.00;99017.91;5064936;28;20829;-65
2023/02/08 03:12:55;;;;;;;18.27;13.77;;;;;;;-9.50;100.00;99019.59;5065245;28;20990;-66
2023/02/08 03:15:29;;;;;;;17.27;13.30;;;;;;;-9.54;100.00;99024.78;5017968;28;21007;-65
2023/02/08 03:18:05;;;;;;;15.73;13.00;;;;;;;-9.63;100.00;99028.28;5065850;28;20491;-66
2023/02/08 03:20:36;;;;;;;14.43;12.83;;;;;;;-9.68;100.00;99032.59;5068337;28;20616;-65
2023/02/08 03:23:09;;;;;;;17.07;13.53;;;;;;;-9.80;100.00;99020.72;5063645;28;20448;-66
2023/02/08 03:25:45;;;;;;;15.73;13.87;;;;;;;-9.70;100.00;99037.72;5062118;28;23154;-65
2023/02/08 03:28:19;;;;;;;18.13;14.33;;;;;;;-9.71;100.00;99038.59;5074232;28;20447;-65
2023/02/08 03:30:51;;;;;;;16.20;13.17;;;;;;;-9.73;100.00;99035.19;5022694;28;20481;-66
2023/02/08 03:33:24;;;;;;;17.87;14.43;;;;;;;-9.77;100.00;99031.81;5070447;28;20522;-64
2023/02/08 03:35:56;;;;;;;17.47;12.57;;;;;;;-9.78;100.00;99032.69;5073516;28;20475;-66
2023/02/08 03:38:27;;;;;;;15.63;12.77;;;;;;;-9.82;100.00;99036.13;5070238;28;20550;-65
2023/02/08 03:40:56;;;;;;;14.53;13.00;;;;;;;-9.79;100.00;99024.97;5069259;28;20456;-65
2023/02/08 03:43:35;;;;;;;19.90;14.80;;;;;;;-9.77;100.00;99030.94;5071367;28;20467;-64
2023/02/08 03:46:07;;;;;;;18.27;13.30;;;;;;;-9.79;100.00;99020.72;5025034;28;20456;-65
2023/02/08 03:48:39;;;;;;;18.03;13.40;;;;;;;-9.74;100.00;99029.22;5069729;28;20561;-66
2023/02/08 03:51:07;;;;;;;19.00;13.37;;;;;;;-9.68;100.00;99041.13;5070860;28;20455;-64
2023/02/08 03:53:39;;;;;;;14.10;12.60;;;;;;;-9.70;100.00;99031.75;5069101;28;20631;-63
2023/02/08 03:56:10;;;;;;;20.57;14.77;;;;;;;-9.72;100.00;99034.31;5037495;28;21067;-64
2023/02/08 03:58:40;;;;;;;16.87;15.07;;;;;;;-9.74;100.00;99034.34;5046792;28;22891;-65
2023/02/08 04:01:14;;;;;;;20.40;14.17;;;;;;;-9.81;100.00;99036.97;4995991;28;21046;-64
2023/02/08 04:03:45;;;;;;;20.03;14.77;;;;;;;-9.89;100.00;99037.00;5044029;28;20448;-65
2023/02/08 04:06:13;;;;;;;19.33;14.53;;;;;;;-9.94;100.00;99031.94;5041555;28;20825;-65
2023/02/08 04:08:41;;;;;;;21.90;18.58;;;;;;;-9.92;100.00;99032.78;5018107;28;20446;-64
2023/02/08 04:11:08;;;;;;;18.00;15.80;;;;;;;-9.92;100.00;99034.47;5046458;28;20249;-65
2023/02/08 04:13:36;;;;;;;16.03;14.33;;;;;;;-9.93;100.00;99030.19;5028858;28;20457;-67
2023/02/08 04:16:04;;;;;;;19.20;14.00;;;;;;;-9.96;100.00;99028.53;5041511;28;21121;-65
2023/02/08 04:18:32;;;;;;;17.83;12.70;;;;;;;-10.00;100.00;99034.53;4996971;28;20472;-62
2023/02/08 04:21:01;;;;;;;20.50;13.67;;;;;;;-9.94;100.00;99037.06;5043758;28;21032;-66
2023/02/08 04:23:28;;;;;;;16.73;13.73;;;;;;;-9.95;100.00;99037.94;5046602;28;20449;-62
2023/02/08 04:25:56;;;;;;;29.80;13.43;;;;;;;-9.97;100.00;99031.97;5047360;28;20437;-62
2023/02/08 04:28:23;;;;;;;22.90;13.50;;;;;;;-10.03;100.00;99027.72;5030544;28;20464;-65
2023/02/08 04:30:51;;;;;;;15.20;12.37;;;;;;;-10.02;100.00;99028.56;5021596;28;20619;-66
2023/02/08 04:33:19;;;;;;;23.27;14.57;;;;;;;-10.00;100.00;99033.69;5000909;28;20472;-66
2023/02/08 04:35:46;;;;;;;18.73;13.67;;;;;;;-10.02;100.00;99031.13;5048808;28;21197;-65
2023/02/08 04:38:15;;;;;;;17.90;13.70;;;;;;;-10.05;100.00;99026.00;5040419;28;20459;-63
2023/02/08 04:40:43;;;;;;;15.93;11.97;;;;;;;-10.14;100.00;99031.19;5041941;28;20465;-63
2023/02/08 04:43:10;;;;;;;17.17;12.60;;;;;;;-10.17;100.00;99032.91;5046836;28;20445;-66
2023/02/08 04:45:38;;;;;;;19.80;15.00;;;;;;;-10.17;100.00;99032.09;5029321;28;20989;-63
2023/02/08 04:48:06;;;;;;;18.47;13.37;;;;;;;-10.24;100.00;99027.81;5043290;28;20968;-65
2023/02/08 04:50:34;;;;;;;15.63;14.00;;;;;;;-10.26;100.00;99030.41;4999785;28;20487;-63
2023/02/08 04:53:02;;;;;;;16.33;13.57;;;;;;;-10.25;100.00;99028.69;5041981;28;20590;-65
2023/02/08 04:55:30;;;;;;;13.20;11.57;;;;;;;-10.24;100.00;99030.38;5053695;28;20663;-63
2023/02/08 04:57:58;;;;;;;19.55;17.05;;;;;;;-10.24;100.00;99018.44;5065788;28;20428;-66
2023/02/08 05:00:26;;;;;;;20.23;15.13;;;;;;;-10.30;100.00;99013.34;5052697;28;20471;-64
2023/02/08 05:02:54;;;;;;;16.07;13.33;;;;;;;-10.32;100.00;99023.59;5067553;28;20460;-64
2023/02/08 05:05:21;;;;;;;19.60;14.07;;;;;;;-10.38;100.00;99015.13;5029351;28;20460;-62
2023/02/08 05:07:49;;;;;;;16.30;13.87;;;;;;;-10.34;100.00;99024.47;5061278;28;20448;-64
2023/02/08 05:10:17;;;;;;;14.60;12.30;;;;;;;-10.35;100.00;99015.94;5069348;28;20440;-63
2023/02/08 05:12:46;;;;;;;17.07;14.47;;;;;;;-10.34;100.00;99019.34;5067111;28;21220;-65
2023/02/08 05:15:13;;;;;;;16.70;14.57;;;;;;;-10.43;100.00;99022.84;5068930;28;20428;-65
2023/02/08 05:17:41;;;;;;;18.80;14.30;;;;;;;-10.45;100.00;99019.44;5049676;28;20452;-64
2023/02/08 05:20:10;;;;;;;18.53;14.83;;;;;;;-10.41;100.00;99012.59;5029872;28;20810;-64
2023/02/08 05:22:38;;;;;;;18.20;14.07;;;;;;;-10.53;100.00;99019.47;5059909;28;20456;-63
2023/02/08 05:25:06;;;;;;;16.77;13.03;;;;;;;-10.54;100.00;99028.00;5064478;28;20436;-65
2023/02/08 05:27:35;;;;;;;18.07;14.17;;;;;;;-10.51;100.00;99025.44;5068032;28;20444;-65
2023/02/08 05:30:05;;;;;;;18.53;13.17;;;;;;;-10.52;100.00;99030.59;5062373;28;20455;-66
2023/02/08 05:32:32;;;;;;;18.77;14.63;;;;;;;-10.60;100.00;99027.22;5051681;28;20534;-64
2023/02/08 05:35:00;;;;;;;19.55;15.73;;;;;;;-10.70;100.00;99028.94;5063705;28;20432;-65
2023/02/08 05:37:28;;;;;;;17.23;13.87;;;;;;;-10.74;100.00;99032.38;5020772;28;20320;-65
2023/02/08 05:39:55;;;;;;;19.50;13.97;;;;;;;-10.70;100.00;99031.50;5067255;28;20451;-68
2023/02/08 05:42:23;;;;;;;16.10;13.43;;;;;;;-10.72;100.00;99031.50;5068562;28;20463;-65
2023/02/08 05:44:51;;;;;;;17.47;13.97;;;;;;;-10.69;100.00;99040.91;5044421;28;20460;-65
2023/02/08 05:47:20;;;;;;;16.10;13.50;;;;;;;-10.70;100.00;99029.78;5063167;28;20458;-67
2023/02/08 05:49:48;;;;;;;18.43;13.03;;;;;;;-10.61;100.00;99044.28;5066597;28;20513;-67
2023/02/08 05:52:15;;;;;;;19.20;14.67;;;;;;;-10.63;100.00;99035.75;5019689;28;20468;-67
2023/02/08 05:54:43;;;;;;;15.90;13.80;;;;;;;-10.61;100.00;99036.59;5065759;28;20478;-68
2023/02/08 05:57:10;;;;;;;17.13;14.67;;;;;;;-10.66;100.00;99033.19;5058267;28;20473;-67
2023/02/08 05:59:38;;;;;;;19.40;14.47;;;;;;;-10.63;100.00;99051.97;5065074;28;20452;-68
2023/02/08 06:02:06;;;;;;;16.73;14.40;;;;;;;-10.55;100.00;99051.94;5061582;28;20472;-65
2023/02/08 06:04:35;;;;;;;19.30;14.90;;;;;;;-10.53;100.00;99052.78;5070148;28;20432;-67
2023/02/08 06:07:08;;;;;;;17.30;14.57;;;;;;;-10.53;100.00;99059.63;5023289;28;20486;-67
2023/02/08 06:09:35;;;;;;;20.50;13.83;;;;;;;-10.60;100.00;99056.22;5064564;28;20540;-68
2023/02/08 06:12:03;;;;;;;19.07;13.67;;;;;;;-10.69;100.00;99048.59;5068751;28;20468;-65
2023/02/08 06:14:30;;;;;;;17.70;14.53;;;;;;;-10.60;100.00;99060.53;5066156;28;20437;-68
2023/02/08 06:16:58;;;;;;;20.33;14.67;;;;;;;-10.60;100.00;99070.75;5063009;28;20476;-65
2023/02/08 06:19:26;;;;;;;19.30;14.17;;;;;;;-10.58;100.00;99061.38;5060180;28;20690;-67
2023/02/08 06:21:55;;;;;;;18.80;14.83;;;;;;;-10.65;100.00;99066.47;5056492;28;20505;-66
2023/02/08 06:24:24;;;;;;;21.90;14.80;;;;;;;-10.68;100.00;99061.38;5037838;28;20817;-67
2023/02/08 06:26:51;;;;;;;20.00;16.50;;;;;;;-10.70;100.00;99065.66;5070677;28;20540;-64
2023/02/08 06:29:19;;;;;;;25.07;18.07;;;;;;;-10.74;100.00;99070.81;5065622;28;20449;-66
2023/02/08 06:31:47;;;;;;;21.83;16.03;;;;;;;-10.78;100.00;99073.38;5067488;28;20468;-64
2023/02/08 06:34:15;;;;;;;28.60;19.87;;;;;;;-10.81;100.00;99078.47;5067227;28;20441;-68
2023/02/08 06:36:44;;;;;;;28.87;21.20;;;;;;;-10.81;100.00;99075.91;5067289;28;20875;-68
2023/02/08 06:39:13;;;;;;;24.33;19.30;;;;;;;-10.75;100.00;99072.50;5017453;28;20464;-67
2023/02/08 06:41:41;;;;;;;23.20;16.30;;;;;;;-10.83;100.00;99072.50;5067330;28;20463;-68
2023/02/08 06:44:08;;;;;;;19.37;14.20;;;;;;;-10.86;100.00;99077.66;5064339;28;20440;-65
2023/02/08 06:46:36;;;;;;;19.37;16.20;;;;;;;-10.88;100.00;99078.53;5067106;28;20693;-67
2023/02/08 06:49:03;;;;;;;20.50;15.00;;;;;;;-10.89;100.00;99061.44;5066247;28;20772;-65
2023/02/08 06:51:31;;;;;;;20.07;14.57;;;;;;;-10.84;100.00;99073.38;5064290;28;20492;-64
2023/02/08 06:53:58;;;;;;;19.43;15.27;;;;;;;-10.80;100.00;99076.78;5019378;28;20468;-66
2023/02/08 06:56:27;;;;;;;21.50;16.10;;;;;;;-10.81;100.00;99077.66;5063500;28;20571;-65
2023/02/08 06:58:56;;;;;;;19.93;14.57;;;;;;;-10.79;100.00;99068.25;5068163;28;20436;-65
2023/02/08 07:01:23;;;;;;;18.97;14.87;;;;;;;-10.75;100.00;99072.50;5065452;28;20744;-67
2023/02/08 07:03:51;;;;;;;18.30;14.70;;;;;;;-10.69;100.00;99074.22;5064479;28;20777;-64
2023/02/08 07:06:20;;;;;;;19.90;14.77;;;;;;;-10.72;100.00;99075.06;5058647;28;20542;-67
2023/02/08 07:08:48;;;;;;;22.03;16.23;;;;;;;-10.71;100.00;99070.78;5022206;28;20986;-67
2023/02/08 07:11:18;;;;;;;20.23;16.67;;;;;;;-10.63;100.00;99069.06;5063775;28;21092;-67
2023/02/08 07:13:47;;;;;;;19.73;14.60;;;;;;;-10.61;100.00;99077.59;5063987;28;20523;-68
2023/02/08 07:16:15;;;;;;;19.60;14.97;;;;;;;-10.50;100.00;99072.44;5063698;28;20562;-65
2023/02/08 07:18:43;;;;;;;17.90;15.23;;;;;;;-10.45;100.00;99078.38;5066111;28;20445;-68
2023/02/08 07:21:11;;;;;;;19.23;15.80;;;;;;;-10.40;100.00;99070.69;5059689;28;20453;-64
2023/02/08 07:23:39;;;;;;;24.50;15.83;;;;;;;-10.34;100.00;99068.06;5056599;28;20981;-66
2023/02/08 07:26:09;;;;;;;17.87;15.30;;;;;;;-10.33;100.00;99064.63;5015603;28;20453;-64
2023/02/08 07:28:36;;;;;;;22.53;15.60;;;;;;;-10.28;100.00;99067.16;5065604;28;20440;-65
2023/02/08 07:31:06;;;;;;;20.03;16.53;;;;;;;-10.15;100.00;99063.69;5063908;28;20472;-63
2023/02/08 07:33:34;;;;;;;22.07;17.50;;;;;;;-10.12;100.00;99065.38;5064445;28;20505;-65
2023/02/08 07:36:04;;;;;;;21.00;16.07;;;;;;;-10.08;100.00;99067.06;5065524;28;20590;-63
2023/02/08 07:38:32;;;;;;;24.10;16.87;;;;;;;-10.00;100.00;99065.31;5065073;28;20488;-65
2023/02/08 07:41:01;;;;;;;21.57;17.83;;;;;;;-9.91;100.00;99067.81;5017002;28;20483;-63
2023/02/08 07:43:28;;;;;;;24.80;18.33;;;;;;;-9.81;100.00;99070.31;5063246;28;20432;-64
2023/02/08 07:45:56;;;;;;;23.53;18.13;;;;;;;-9.69;100.00;99069.38;5067643;28;20444;-64
2023/02/08 07:48:25;;;;;;;22.03;16.77;;;;;;;-9.56;100.00;99070.16;5061210;28;20958;-66
2023/02/08 07:50:52;;;;;;;21.87;17.53;;;;;;;-9.46;100.00;99062.38;5067563;28;20567;-64
2023/02/08 07:53:20;;;;;;;21.57;17.17;;;;;;;-9.38;100.00;99064.84;5061160;28;20733;-67
2023/02/08 07:55:47;;;;;;;25.63;16.27;;;;;;;-9.22;100.00;99075.00;5064964;28;20441;-67
2023/02/08 07:58:15;;;;;;;28.57;16.77;;;;;;;-9.16;100.00;99074.94;5020754;28;20808;-66
2023/02/08 08:00:43;;;;;;;20.77;16.97;;;;;;;-9.07;100.00;99066.31;5068175;28;20472;-68
2023/02/08 08:03:10;;;;;;;19.93;15.67;;;;;;;-8.97;100.00;99059.34;5061287;28;20453;-65
2023/02/08 08:05:41;;;;;;;23.53;18.23;;;;;;;-8.91;100.00;99055.00;5069303;28;20436;-66
2023/02/08 08:08:09;;;;;;;22.33;17.60;;;;;;;-8.82;100.00;99063.47;5057555;28;20453;-64
2023/02/08 08:10:37;;;;;;;25.33;19.07;;;;;;;-8.75;100.00;99054.81;5065653;28;20464;-64
2023/02/08 08:13:05;;;;;;;23.23;17.33;;;;;;;-8.61;100.00;99062.38;5018084;28;20467;-62
2023/02/08 08:15:33;;;;;;;22.90;18.57;;;;;;;-8.51;100.00;99063.13;5070705;28;20455;-66
2023/02/08 08:18:00;;;;;;;23.07;17.07;;;;;;;-8.51;100.00;99052.84;5068111;28;20665;-63
2023/02/08 08:20:28;;;;;;;23.37;17.07;;;;;;;-8.27;100.00;99066.25;5069678;28;20459;-66
2023/02/08 08:22:57;;;;;;;21.10;17.20;;;;;;;-8.14;100.00;99071.22;5065554;28;20467;-63
2023/02/08 08:25:25;;;;;;;23.90;18.17;;;;;;;-8.00;100.00;99067.59;5068082;28;20704;-65
2023/02/08 08:27:53;;;;;;;30.73;20.53;;;;;;;-7.87;100.00;99071.69;5025536;28;20456;-63
2023/02/08 08:30:21;;;;;;;22.93;18.27;;;;;;;-7.73;100.00;99063.75;5065172;28;20477;-65
2023/02/08 08:32:48;;;;;;;28.90;21.00;;;;;;;-7.61;100.00;99065.31;5068908;28;20976;-64
2023/02/08 08:35:16;;;;;;;25.43;18.67;;;;;;;-7.38;100.00;99064.09;5069034;28;20837;-65
2023/02/08 08:37:43;;;;;;;28.87;21.37;;;;;;;-7.19;100.00;99067.22;5068863;28;20514;-66
2023/02/08 08:40:12;;;;;;;24.70;18.30;;;;;;;-7.09;100.00;99057.59;5062740;28;20432;-65
2023/02/08 08:42:40;;;;;;;22.73;18.27;;;;;;;-6.88;100.00;99053.75;5068483;28;20450;-66
2023/02/08 08:45:09;;;;;;;20.43;17.90;;;;;;;-6.71;100.00;99055.19;5020905;28;20532;-63
2023/02/08 08:47:36;;;;;;;22.23;18.57;;;;;;;-6.65;100.00;99054.19;5061404;28;20455;-66
2023/02/08 08:50:04;;;;;;;23.07;18.97;;;;;;;-6.46;100.00;99050.38;5069342;28;20986;-63
2023/02/08 08:52:32;;;;;;;21.50;17.70;;;;;;;-6.18;100.00;99047.25;5067402;28;20479;-64
2023/02/08 08:54:59;;;;;;;22.47;18.33;;;;;;;-5.95;100.00;99040.69;5065512;28;20982;-63
2023/02/08 08:57:28;;;;;;;21.90;18.43;;;;;;;-5.82;100.00;99030.91;5065687;28;20491;-64
2023/02/08 08:59:56;;;;;;;21.10;17.80;;;;;;;-5.77;100.00;99039.41;5012570;28;20467;-63
2023/02/08 09:02:23;;;;;;;26.90;19.47;;;;;;;-5.65;100.00;99022.78;5057842;28;20900;-64
2023/02/08 09:04:51;;;;;;;25.40;20.30;;;;;;;-5.44;100.00;99033.50;5057832;28;20201;-64
2023/02/08 09:07:18;;;;;;;23.17;18.63;;;;;;;-5.24;100.00;99027.81;5048249;28;20712;-64
2023/02/08 09:09:47;;;;;;;26.30;20.23;;;;;;;-5.28;100.00;99027.03;5057026;28;20465;-65
2023/02/08 09:12:15;;;;;;;25.93;20.07;;;;;;;-5.13;100.00;99018.03;5052498;28;20484;-63
2023/02/08 09:14:44;;;;;;;24.47;19.43;;;;;;;-4.86;100.00;99020.78;5013656;28;20956;-66
2023/02/08 09:17:12;;;;;;;25.40;19.30;;;;;;;-4.53;100.00;99019.88;5054992;28;20818;-64
2023/02/08 09:19:41;;;;;;;22.23;18.47;;;;;;;-4.34;97.27;99035.72;5059985;28;20436;-66
2023/02/08 09:22:08;;;;;;;24.03;19.20;;;;;;;-4.32;93.37;99018.41;5054716;28;20967;-63
2023/02/08 09:24:36;;;;;;;21.77;18.60;;;;;;;-4.11;91.29;99016.09;5058114;28;20451;-67
2023/02/08 09:27:04;;;;;;;22.43;18.03;;;;;;;-4.05;89.90;99018.50;5060600;28;20206;-64
2023/02/08 09:29:32;;;;;;;23.73;18.57;;;;;;;-3.81;89.57;99019.47;5006552;28;20218;-66
2023/02/08 09:32:01;;;;;;;20.70;18.27;;;;;;;-3.72;87.82;99022.66;5052969;28;20758;-64
2023/02/08 09:34:28;;;;;;;27.70;17.77;;;;;;;-3.55;86.82;99024.72;5063961;28;20222;-66
2023/02/08 09:36:56;;;;;;;23.83;18.57;;;;;;;-3.40;85.60;99023.38;5050759;28;20591;-63
2023/02/08 09:39:25;;;;;;;21.53;18.33;;;;;;;-3.31;85.12;99027.41;5054838;28;20552;-60
2023/02/08 09:42:05;;;;;;;22.97;18.70;;;;;;;-3.41;84.19;99026.84;5063953;28;20254;-63
2023/02/08 09:44:39;;;;;;;20.50;18.33;;;;;;;-3.43;84.23;99028.66;5054853;28;20206;-65
2023/02/08 09:47:13;;;;;;;23.77;18.07;;;;;;;-3.40;81.53;99037.19;5002296;28;21444;-61
2023/02/08 09:49:46;;;;;;;21.60;17.13;;;;;;;-3.32;80.77;99028.31;5060470;28;20682;-65
2023/02/08 09:52:16;;;;;;;24.27;16.63;;;;;;;-3.29;80.72;99033.38;5045418;28;20681;-65
2023/02/08 09:54:46;;;;;;;21.93;18.10;;;;;;;-3.22;80.75;99021.91;5059831;28;20194;-66
2023/02/08 09:57:17;;;;;;;20.97;17.63;;;;;;;-3.13;80.12;99025.94;5060907;28;20190;-66
2023/02/08 09:59:49;;;;;;;26.63;19.37;;;;;;;-3.06;80.19;99023.06;5060684;28;20487;-64
2023/02/08 10:02:22;;;;;;;22.20;18.13;;;;;;;-2.88;79.00;99020.75;5005877;28;20230;-65
2023/02/08 10:04:56;;;;;;;25.30;19.33;;;;;;;-2.80;80.09;99013.53;5059628;28;20207;-66
2023/02/08 10:07:25;;;;;;;22.87;18.23;;;;;;;-2.65;79.68;99016.50;5059402;28;20427;-65
2023/02/08 10:09:53;;;;;;;22.90;19.33;;;;;;;-2.94;78.73;99024.41;5049751;28;20446;-63
2023/02/08 10:12:29;;;;;;;23.97;18.83;;;;;;;-2.93;77.91;99027.84;5054086;28;20491;-65
2023/02/08 10:15:03;;;;;;;21.90;19.43;;;;;;;-2.73;78.61;99015.91;5063023;28;20206;-60
2023/02/08 10:17:49;;;;;;;21.43;18.60;;;;;;;-2.79;78.52;99010.03;5010640;28;20206;-66
2023/02/08 10:20:33;;;;;;;20.80;17.97;;;;;;;-2.93;78.53;99018.31;5052438;28;20336;-65
2023/02/08 10:23:07;;;;;;;23.23;18.83;;;;;;;-3.07;78.02;99018.78;5050671;28;20683;-63
2023/02/08 10:25:50;;;;;;;22.10;17.90;;;;;;;-2.99;79.73;99008.16;5051267;28;20204;-63
2023/02/08 10:28:26;;;;;;;23.13;19.10;;;;;;;-2.71;79.07;99002.00;5053629;28;20191;-62
2023/02/08 10:30:57;;;;;;;23.93;19.00;;;;;;;-2.56;77.98;99015.31;5036443;28;20222;-63
2023/02/08 10:33:31;;;;;;;22.83;19.53;;;;;;;-2.54;78.15;99010.91;5036344;28;20296;-65
2023/02/08 10:35:59;;;;;;;21.53;18.03;;;;;;;-2.68;78.27;99006.22;5058671;28;20956;-63
2023/02/08 10:38:28;;;;;;;25.13;19.93;;;;;;;-2.51;78.75;99005.59;5052383;28;20541;-64
2023/02/08 10:41:18;;;;;;;20.77;18.10;;;;;;;-2.54;77.29;99003.13;5049289;28;20231;-63
2023/02/08 10:43:49;;;;;;;21.40;19.17;;;;;;;-2.27;78.46;98997.81;5062171;28;20686;-66
2023/02/08 10:46:25;;;;;;;20.97;18.30;;;;;;;-2.09;77.05;98997.09;5051632;28;20313;-66
2023/02/08 10:49:02;;;;;;;30.20;19.90;;;;;;;-2.20;76.98;98986.28;5009557;28;20517;-63
2023/02/08 10:51:30;;;;;;;23.70;20.53;;;;;;;-2.05;76.50;98988.28;5057274;28;20219;-64
2023/02/08 10:53:58;;;;;;;21.23;18.93;;;;;;;-2.14;77.05;98988.63;5051524;28;20206;-63
2023/02/08 10:56:44;;;;;;;25.67;19.83;;;;;;;-2.27;76.64;98977.88;5060983;28;20715;-63
2023/02/08 10:59:22;;;;;;;25.00;19.40;;;;;;;-2.17;77.95;98983.56;5052090;28;20253;-64
2023/02/08 11:01:50;;;;;;;25.60;20.53;;;;;;;-2.11;76.89;98974.69;5050275;28;20223;-63
2023/02/08 11:04:20;;;;;;;25.90;19.73;;;;;;;-2.19;77.43;98962.00;5010237;28;20221;-63
2023/02/08 11:06:49;;;;;;;27.47;20.23;;;;;;;-2.14;76.57;98970.44;5049809;28;20445;-64
2023/02/08 11:09:21;;;;;;;24.03;19.50;;;;;;;-2.12;76.50;98958.25;5058387;28;20214;-65
2023/02/08 11:11:51;;;;;;;25.27;18.83;;;;;;;-1.91;76.18;98956.53;5054811;28;20603;-65
2023/02/08 11:14:20;;;;;;;21.87;19.17;;;;;;;-1.80;76.23;98947.50;5058872;28;20443;-63
2023/02/08 11:16:51;;;;;;;25.00;19.13;;;;;;;-1.90;75.55;98953.03;5049740;28;20931;-64
2023/02/08 11:19:31;;;;;;;21.60;18.33;;;;;;;-1.87;76.49;98951.25;5005731;28;20219;-62
2023/02/08 11:22:04;;;;;;;23.20;18.83;;;;;;;-1.79;75.53;98937.03;5048350;28;20227;-64
2023/02/08 11:24:38;;;;;;;23.17;17.83;;;;;;;-1.57;75.75;98933.53;5052426;28;20202;-62